createdAt,value
2023-09-12T00:00:20.419Z,23.30
2023-09-12T00:02:52.711Z,23.18
2023-09-12T00:05:22.453Z,23.13
2023-09-12T00:07:55.535Z,22.98
2023-09-12T00:10:26.095Z,22.79
2023-09-12T00:12:57.368Z,22.86
2023-09-12T00:15:27.223Z,22.97
2023-09-12T00:17:59.675Z,23.04
2023-09-12T00:20:29.390Z,23.01
2023-09-12T00:22:59.005Z,22.94
2023-09-12T00:25:28.863Z,22.97
2023-09-12T00:27:58.623Z,22.92
2023-09-12T00:30:28.364Z,22.92
2023-09-12T00:33:00.855Z,22.98
2023-09-12T00:35:30.689Z,23.02
2023-09-12T00:38:00.720Z,23.03
2023-09-12T00:40:30.564Z,23.10
2023-09-12T00:43:00.467Z,23.07
2023-09-12T00:45:30.303Z,23.10
2023-09-12T00:48:04.174Z,23.14
2023-09-12T00:50:35.433Z,23.13
2023-09-12T00:53:07.914Z,23.09
2023-09-12T00:55:41.049Z,23.07
2023-09-12T00:58:11.198Z,23.07
2023-09-12T01:00:41.108Z,23.08
2023-09-12T01:03:13.932Z,23.10
2023-09-12T01:05:45.849Z,23.00
2023-09-12T01:08:15.849Z,22.99
2023-09-12T01:10:47.272Z,23.01
2023-09-12T01:13:17.882Z,23.08
2023-09-12T01:15:47.723Z,23.09
2023-09-12T01:18:20.133Z,22.99
2023-09-12T01:21:08.540Z,22.90
2023-09-12T01:23:55.841Z,22.68
2023-09-12T01:26:34.026Z,22.33
2023-09-12T01:29:10.435Z,22.36
2023-09-12T01:31:42.012Z,22.50
2023-09-12T01:34:15.522Z,22.65
2023-09-12T01:36:45.439Z,22.61
2023-09-12T01:39:15.288Z,22.32
2023-09-12T01:41:50.028Z,22.37
2023-09-12T01:44:24.647Z,22.45
2023-09-12T01:46:57.406Z,22.34
2023-09-12T01:49:28.428Z,22.24
2023-09-12T01:52:00.380Z,22.17
2023-09-12T01:54:31.235Z,22.28
2023-09-12T01:57:02.404Z,22.32
2023-09-12T01:59:35.661Z,22.33
2023-09-12T02:02:05.517Z,22.25
2023-09-12T02:04:35.249Z,22.27
2023-09-12T02:07:04.974Z,22.25
2023-09-12T02:09:34.777Z,22.07
2023-09-12T02:12:04.435Z,22.05
2023-09-12T02:14:36.852Z,22.14
2023-09-12T02:17:07.258Z,22.07
2023-09-12T02:19:37.133Z,22.05
2023-09-12T02:22:07.309Z,22.12
2023-09-12T02:24:38.686Z,22.16
2023-09-12T02:27:08.564Z,22.12
2023-09-12T02:29:42.313Z,22.07
2023-09-12T02:32:12.405Z,22.06
2023-09-12T02:34:42.155Z,22.09
2023-09-12T02:37:11.846Z,22.11
2023-09-12T02:39:42.070Z,22.11
2023-09-12T02:42:12.596Z,22.04
2023-09-12T02:44:45.046Z,22.10
2023-09-12T02:47:14.811Z,22.13
2023-09-12T02:49:44.442Z,22.13
2023-09-12T02:52:14.214Z,22.20
2023-09-12T02:54:43.966Z,22.23
2023-09-12T02:57:13.704Z,22.07
2023-09-12T02:59:46.066Z,22.15
2023-09-12T03:02:15.823Z,22.17
2023-09-12T03:04:45.480Z,22.20
2023-09-12T03:07:15.234Z,22.18
2023-09-12T03:09:44.948Z,22.04
2023-09-12T03:12:14.862Z,21.98
2023-09-12T03:14:47.129Z,22.04
2023-09-12T03:17:17.159Z,22.04
2023-09-12T03:19:46.854Z,21.90
2023-09-12T03:22:16.814Z,21.68
2023-09-12T03:24:46.598Z,21.71
2023-09-12T03:27:16.801Z,21.68
2023-09-12T03:29:50.731Z,21.49
2023-09-12T03:32:20.467Z,21.52
2023-09-12T03:34:50.189Z,21.36
2023-09-12T03:37:19.887Z,21.48
2023-09-12T03:39:49.674Z,21.51
2023-09-12T03:42:19.438Z,21.53
2023-09-12T03:44:51.788Z,21.52
2023-09-12T03:47:21.541Z,21.43
2023-09-12T03:49:51.187Z,21.39
2023-09-12T03:52:20.884Z,21.42
2023-09-12T03:54:50.552Z,21.29
2023-09-12T03:57:20.410Z,21.42
2023-09-12T03:59:53.901Z,21.42
2023-09-12T04:02:23.772Z,21.37
2023-09-12T04:04:53.695Z,21.30
2023-09-12T04:07:23.639Z,21.30
2023-09-12T04:09:53.683Z,21.22
2023-09-12T04:12:23.415Z,21.24
2023-09-12T04:14:56.688Z,21.15
2023-09-12T04:17:26.552Z,21.31
2023-09-12T04:19:56.462Z,21.28
2023-09-12T04:22:26.297Z,21.10
2023-09-12T04:24:56.022Z,20.97
2023-09-12T04:27:25.746Z,20.94
2023-09-12T04:29:58.463Z,21.13
2023-09-12T04:32:28.286Z,21.09
2023-09-12T04:34:58.147Z,21.15
2023-09-12T04:37:27.985Z,21.11
2023-09-12T04:39:58.333Z,21.18
2023-09-12T04:42:28.541Z,21.15
2023-09-12T04:45:00.757Z,21.01
2023-09-12T04:47:30.565Z,21.17
2023-09-12T04:50:01.346Z,21.01
2023-09-12T04:52:33.760Z,20.89
2023-09-12T04:55:04.968Z,20.95
2023-09-12T04:57:34.902Z,21.04
2023-09-12T05:00:09.463Z,21.01
2023-09-12T05:02:39.391Z,21.01
2023-09-12T05:05:12.187Z,20.93
2023-09-12T05:07:47.485Z,21.02
2023-09-12T05:10:17.645Z,21.06
2023-09-12T05:12:47.474Z,21.19
2023-09-12T05:15:20.030Z,21.20
2023-09-12T05:17:50.460Z,21.20
2023-09-12T05:20:20.441Z,21.23
2023-09-12T05:22:50.288Z,21.41
2023-09-12T05:25:20.101Z,21.48
2023-09-12T05:27:49.846Z,21.56
2023-09-12T05:30:22.828Z,21.71
2023-09-12T05:32:52.665Z,21.77
2023-09-12T05:35:23.096Z,21.85
2023-09-12T05:37:55.284Z,22.09
2023-09-12T05:40:25.353Z,22.32
2023-09-12T05:42:55.408Z,22.41
2023-09-12T05:45:30.152Z,22.60
2023-09-12T05:47:59.982Z,22.68
2023-09-12T05:50:31.190Z,22.91
2023-09-12T05:53:01.050Z,23.12
2023-09-12T05:55:30.806Z,23.29
2023-09-12T05:58:00.522Z,23.34
2023-09-12T06:00:32.913Z,23.22
2023-09-12T06:03:02.859Z,22.81
2023-09-12T06:05:32.804Z,22.72
2023-09-12T06:08:02.515Z,22.52
2023-09-12T06:10:32.245Z,22.58
2023-09-12T06:13:01.867Z,22.47
2023-09-12T06:15:34.359Z,22.19
2023-09-12T06:18:04.252Z,22.21
2023-09-12T06:20:33.920Z,22.39
2023-09-12T06:23:04.688Z,22.45
2023-09-12T06:25:35.216Z,22.51
2023-09-12T06:28:05.014Z,22.59
2023-09-12T06:30:37.305Z,22.66
2023-09-12T06:33:07.856Z,22.68
2023-09-12T06:35:38.328Z,22.54
2023-09-12T06:38:09.435Z,22.38
2023-09-12T06:40:39.319Z,22.35
2023-09-12T06:43:08.936Z,22.51
2023-09-12T06:45:41.693Z,22.39
2023-09-12T06:48:11.624Z,22.35
2023-09-12T06:50:46.576Z,22.27
2023-09-12T06:53:18.701Z,22.01
2023-09-12T06:55:48.473Z,22.16
2023-09-12T06:58:18.248Z,21.97
2023-09-12T07:00:50.579Z,22.02
2023-09-12T07:03:20.814Z,22.00
2023-09-12T07:05:50.731Z,21.72
2023-09-12T07:08:20.389Z,21.71
2023-09-12T07:10:50.237Z,21.40
2023-09-12T07:13:20.152Z,21.30
2023-09-12T07:15:53.288Z,21.01
2023-09-12T07:18:23.203Z,20.99
2023-09-12T07:21:01.216Z,20.97
2023-09-12T07:23:31.016Z,20.82
2023-09-12T07:26:01.198Z,20.73
2023-09-12T07:28:31.602Z,20.64
2023-09-12T07:31:03.959Z,20.62
2023-09-12T07:33:34.052Z,20.75
2023-09-12T07:36:04.127Z,20.71
2023-09-12T07:38:36.669Z,20.70
2023-09-12T07:41:06.865Z,20.73
2023-09-12T07:43:36.609Z,20.67
2023-09-12T07:46:08.970Z,20.73
2023-09-12T07:48:38.876Z,20.72
2023-09-12T07:51:16.300Z,-145.39
2023-09-12T07:53:46.492Z,-145.39
2023-09-12T07:56:16.487Z,-145.39
2023-09-12T07:58:46.312Z,-145.39
2023-09-12T08:01:18.771Z,-145.39
2023-09-12T08:03:48.866Z,-145.39
2023-09-12T08:06:19.253Z,-145.39
2023-09-12T08:08:48.896Z,-145.39
2023-09-12T08:11:18.653Z,-145.39
2023-09-12T08:13:52.598Z,-145.39
2023-09-12T08:16:25.020Z,-145.39
2023-09-12T08:18:54.814Z,-145.39
2023-09-12T08:21:24.474Z,-145.39
2023-09-12T08:23:54.353Z,-145.39
2023-09-12T08:26:21.468Z,-145.39
2023-09-12T08:28:51.191Z,-145.39
2023-09-12T08:31:21.784Z,-145.39
2023-09-12T08:33:54.077Z,-145.39
2023-09-12T08:36:23.836Z,-145.39
2023-09-12T08:38:53.629Z,-145.39
2023-09-12T08:41:23.277Z,-145.39
2023-09-12T08:43:53.319Z,-145.39
2023-09-12T08:46:24.744Z,-145.39
2023-09-12T08:48:59.464Z,-145.39
2023-09-12T08:51:29.641Z,-145.39
2023-09-12T08:53:59.364Z,-145.39
2023-09-12T08:56:29.289Z,-145.39
2023-09-12T08:58:59.878Z,-145.39
2023-09-12T09:01:30.214Z,-145.39
2023-09-12T09:04:03.773Z,-145.39
2023-09-12T09:06:38.696Z,-145.39
2023-09-12T09:09:10.171Z,-145.39
2023-09-12T09:11:40.042Z,-145.39
2023-09-12T09:14:10.993Z,-145.39
2023-09-12T09:16:40.843Z,-145.39
2023-09-12T09:19:13.541Z,-145.39
2023-09-12T09:21:44.247Z,-145.39
2023-09-12T09:24:16.693Z,-145.39
2023-09-12T09:26:48.170Z,-145.39
2023-09-12T09:29:19.600Z,-145.39
2023-09-12T09:31:50.873Z,-145.39
2023-09-12T09:34:25.466Z,-145.39
2023-09-12T09:36:56.532Z,-145.39
2023-09-12T09:39:27.928Z,-145.39
2023-09-12T09:41:59.275Z,-145.39
2023-09-12T09:44:32.380Z,-145.39
2023-09-12T09:47:06.928Z,-145.39
2023-09-12T09:49:40.052Z,-145.39
2023-09-12T09:52:10.079Z,-145.39
2023-09-12T09:54:46.612Z,-145.39
2023-09-12T09:57:19.133Z,-145.39
2023-09-12T09:59:53.836Z,-145.39
2023-09-12T10:02:26.473Z,-145.39
2023-09-12T10:05:01.177Z,-145.39
2023-09-12T10:07:35.234Z,-145.39
2023-09-12T10:10:06.668Z,-145.39
2023-09-12T10:12:39.503Z,-145.39
2023-09-12T10:15:12.181Z,-145.39
2023-09-12T10:17:45.987Z,-145.39
2023-09-12T10:20:23.654Z,-145.39
2023-09-12T10:23:04.484Z,-145.39
2023-09-12T10:25:34.856Z,-145.39
2023-09-12T10:28:05.227Z,-145.39
2023-09-12T10:30:36.309Z,-145.39
2023-09-12T10:33:07.252Z,-145.39
2023-09-12T10:35:41.483Z,-145.39
2023-09-12T10:38:15.297Z,-145.39
2023-09-12T10:40:46.960Z,-145.39
2023-09-12T10:43:17.843Z,-145.39
2023-09-12T10:45:48.612Z,-145.39
2023-09-12T10:48:18.576Z,-145.39
2023-09-12T10:50:51.529Z,-145.39
2023-09-12T10:53:25.386Z,-145.39
2023-09-12T10:56:17.825Z,-145.39
2023-09-12T10:59:16.887Z,-145.39
2023-09-12T11:01:49.974Z,-145.39
2023-09-12T11:04:38.774Z,-145.39
2023-09-12T11:07:48.680Z,-145.39
2023-09-12T11:10:25.625Z,-145.39
2023-09-12T11:12:56.396Z,-145.39
2023-09-12T11:15:29.189Z,-145.39
2023-09-12T11:18:07.619Z,-145.39
2023-09-12T11:20:54.841Z,-145.39
2023-09-12T11:23:28.946Z,-145.39
2023-09-12T11:26:11.884Z,-145.39
2023-09-12T11:28:45.744Z,-145.39
2023-09-12T11:31:17.732Z,-145.39
2023-09-12T11:33:47.805Z,-145.39
2023-09-12T11:36:18.537Z,-145.39
2023-09-12T11:38:53.539Z,-145.39
2023-09-12T11:41:43.897Z,-145.39
2023-09-12T11:44:13.983Z,-145.39
2023-09-12T11:46:44.871Z,-145.39
2023-09-12T11:49:14.839Z,-145.39
2023-09-12T11:51:51.265Z,-145.39
2023-09-12T11:54:28.635Z,-145.39
2023-09-12T11:57:00.705Z,-145.39
2023-09-12T11:59:30.840Z,-145.39
2023-09-12T12:02:00.810Z,-145.39
2023-09-12T12:04:30.777Z,-145.39
2023-09-12T12:07:00.619Z,-145.39
2023-09-12T12:09:33.106Z,-145.39
2023-09-12T12:12:08.484Z,-145.39
2023-09-12T12:14:39.174Z,-145.39
2023-09-12T12:17:13.165Z,-145.39
2023-09-12T12:19:43.321Z,-145.39
2023-09-12T12:22:13.014Z,-145.39
2023-09-12T12:24:48.239Z,-145.39
2023-09-12T12:27:19.221Z,-145.39
2023-09-12T12:29:49.478Z,-145.39
2023-09-12T12:32:21.542Z,-145.39
2023-09-12T12:35:29.160Z,-145.39
2023-09-12T12:37:44.199Z,-145.39
2023-09-12T12:40:18.974Z,-145.39
2023-09-12T12:42:54.726Z,-145.39
2023-09-12T12:45:27.123Z,-145.39
2023-09-12T12:48:05.079Z,-145.39
2023-09-12T12:50:40.327Z,-145.39
2023-09-12T12:53:09.982Z,-145.39
2023-09-12T12:55:42.359Z,-145.39
2023-09-12T12:58:12.198Z,-145.39
2023-09-12T13:00:43.536Z,-145.39
2023-09-12T13:03:13.304Z,-145.39
2023-09-12T13:05:43.643Z,-145.39
2023-09-12T13:08:13.338Z,-145.39
2023-09-12T13:10:45.988Z,-145.39
2023-09-12T13:13:15.875Z,-145.39
2023-09-12T13:15:45.604Z,-145.39
2023-09-12T13:18:15.366Z,-145.39
2023-09-12T13:20:45.082Z,-145.39
2023-09-12T13:23:14.820Z,-145.39
2023-09-12T13:25:47.352Z,-145.39
2023-09-12T13:28:17.055Z,-145.39
2023-09-12T13:30:46.705Z,-145.39
2023-09-12T13:33:18.088Z,-145.39
2023-09-12T13:35:47.939Z,-145.39
2023-09-12T13:38:18.221Z,-145.39
2023-09-12T13:40:51.006Z,-145.39
2023-09-12T13:43:21.270Z,-145.39
2023-09-12T13:45:51.111Z,-145.39
2023-09-12T13:48:21.102Z,-145.39
2023-09-12T13:50:50.776Z,-145.39
2023-09-12T13:53:20.794Z,-145.39
2023-09-12T13:56:01.845Z,-145.39
2023-09-12T13:58:43.501Z,-145.39
2023-09-12T14:01:26.994Z,-145.39
2023-09-12T14:03:58.664Z,-145.39
2023-09-12T14:06:29.261Z,-145.39
2023-09-12T14:08:59.574Z,-145.39
2023-09-12T14:11:35.885Z,-145.39
2023-09-12T14:14:16.422Z,-145.39
2023-09-12T14:16:48.826Z,-145.39
2023-09-12T14:19:20.708Z,-145.39
2023-09-12T14:21:52.210Z,-145.39
2023-09-12T14:24:26.112Z,-145.39
2023-09-12T14:26:58.954Z,-145.39
2023-09-12T14:29:31.448Z,-145.39
2023-09-12T14:32:01.459Z,-145.39
2023-09-12T14:34:34.115Z,-145.39
2023-09-12T14:37:03.902Z,-145.39
2023-09-12T14:39:33.669Z,-145.39
2023-09-12T14:42:09.960Z,-145.39
2023-09-12T14:44:39.924Z,-145.39
2023-09-12T14:47:09.712Z,-145.39
2023-09-12T14:49:48.068Z,-145.39
2023-09-12T14:52:26.172Z,-145.39
2023-09-12T14:54:59.505Z,-145.39
2023-09-12T14:57:32.578Z,-145.39
2023-09-12T15:00:02.400Z,-145.39
2023-09-12T15:02:33.761Z,-145.39
2023-09-12T15:05:04.742Z,-145.39
2023-09-12T15:07:35.704Z,-145.39
2023-09-12T15:10:05.775Z,-145.39
2023-09-12T15:12:38.141Z,-145.39
2023-09-12T15:15:08.919Z,-145.39
2023-09-12T15:17:38.639Z,-145.39
2023-09-12T15:20:09.402Z,-145.39
2023-09-12T15:22:39.294Z,-145.39
2023-09-12T15:25:10.109Z,-145.39
2023-09-12T15:27:42.519Z,-145.39
2023-09-12T15:30:12.904Z,-145.39
2023-09-12T15:32:42.596Z,-145.39
2023-09-12T15:35:14.595Z,-145.39
2023-09-12T15:37:44.425Z,-145.39
2023-09-12T15:40:14.870Z,-145.39
2023-09-12T15:42:48.007Z,-145.39
2023-09-12T15:45:20.900Z,-145.39
2023-09-12T15:47:52.091Z,-145.39
2023-09-12T15:50:21.796Z,-145.39
2023-09-12T15:52:51.679Z,-145.39
2023-09-12T15:55:21.585Z,-145.39
2023-09-12T15:57:54.209Z,-145.39
2023-09-12T16:00:24.158Z,-145.39
2023-09-12T16:02:54.598Z,-145.39
2023-09-12T16:05:24.379Z,-145.39
2023-09-12T16:07:54.080Z,-145.39
2023-09-12T16:10:23.844Z,-145.39
2023-09-12T16:12:56.129Z,-145.39
2023-09-12T16:15:25.978Z,-145.39
2023-09-12T16:17:55.670Z,-145.39
2023-09-12T16:20:25.469Z,-145.39
2023-09-12T16:22:55.072Z,-145.39
2023-09-12T16:25:25.032Z,-145.39
2023-09-12T16:27:57.446Z,-145.39
2023-09-12T16:30:27.187Z,-145.39
2023-09-12T16:32:56.863Z,-145.39
2023-09-12T16:35:26.660Z,-145.39
2023-09-12T16:37:56.394Z,-145.39
2023-09-12T16:40:26.583Z,-145.39
2023-09-12T16:42:59.077Z,-145.39
2023-09-12T16:45:29.363Z,-145.39
2023-09-12T16:47:59.202Z,-145.39
2023-09-12T16:50:29.562Z,-145.39
2023-09-12T16:52:59.160Z,-145.39
2023-09-12T16:55:29.263Z,-145.39
2023-09-12T16:58:02.336Z,-145.39
2023-09-12T17:00:32.186Z,-145.39
2023-09-12T17:03:01.939Z,-145.39
2023-09-12T17:05:31.656Z,-145.39
2023-09-12T17:08:01.254Z,-145.39
2023-09-12T17:10:31.154Z,-145.39
2023-09-12T17:13:03.417Z,-145.39
2023-09-12T17:15:34.984Z,-145.39
2023-09-12T17:18:05.020Z,-145.39
2023-09-12T17:20:34.696Z,-145.39
2023-09-12T17:23:04.566Z,-145.39
2023-09-12T17:25:35.083Z,-145.39
2023-09-12T17:28:08.461Z,-145.39
2023-09-12T17:30:38.420Z,-145.39
2023-09-12T17:33:11.596Z,-145.39
2023-09-12T17:35:41.554Z,-145.39
2023-09-12T17:38:11.258Z,-145.39
2023-09-12T17:40:41.133Z,-145.39
2023-09-12T17:43:13.463Z,-145.39
2023-09-12T17:45:45.139Z,-145.39
2023-09-12T17:48:20.757Z,-145.39
2023-09-12T17:50:54.498Z,-145.39
2023-09-12T17:53:24.633Z,-145.39
2023-09-12T17:55:55.218Z,-145.39
2023-09-12T17:58:27.509Z,-145.39
2023-09-12T18:01:00.910Z,-145.39
2023-09-12T18:03:32.450Z,-145.39
2023-09-12T18:06:04.181Z,-145.39
2023-09-12T18:08:33.950Z,-145.39
2023-09-12T18:11:04.898Z,-145.39
2023-09-12T18:13:37.138Z,-145.39
2023-09-12T18:16:07.126Z,-145.39
2023-09-12T18:18:36.896Z,-145.39
2023-09-12T18:21:06.673Z,-145.39
2023-09-12T18:23:40.380Z,-145.39
2023-09-12T18:26:10.233Z,-145.39
2023-09-12T18:28:44.113Z,-145.39
2023-09-12T18:31:15.992Z,-145.39
2023-09-12T18:33:46.630Z,-145.39
2023-09-12T18:36:14.555Z,-145.39
2023-09-12T18:38:45.586Z,-145.39
2023-09-12T18:41:17.510Z,-145.39
2023-09-12T18:43:50.139Z,-145.39
2023-09-12T18:46:20.130Z,-145.39
2023-09-12T18:48:49.849Z,-145.39
2023-09-12T18:51:20.133Z,-145.39
2023-09-12T18:53:49.877Z,-145.39
2023-09-12T18:56:19.474Z,-145.39
2023-09-12T18:58:51.877Z,-145.39
2023-09-12T19:01:21.788Z,-145.39
2023-09-12T19:03:52.440Z,-145.39
2023-09-12T19:06:22.326Z,-145.39
2023-09-12T19:08:52.550Z,-145.39
2023-09-12T19:11:23.405Z,-145.39
2023-09-12T19:13:55.897Z,-145.39
2023-09-12T19:16:28.774Z,-145.39
2023-09-12T19:18:59.049Z,-145.39
2023-09-12T19:21:28.656Z,-145.39
2023-09-12T19:23:58.453Z,-145.39
2023-09-12T19:26:28.090Z,-145.39
2023-09-12T19:29:00.394Z,-145.39
2023-09-12T19:31:30.403Z,-145.39
2023-09-12T19:34:01.175Z,-145.39
2023-09-12T19:36:31.176Z,-145.39
2023-09-12T19:39:02.856Z,-145.39
2023-09-12T19:41:33.309Z,-145.39
2023-09-12T19:44:05.741Z,-145.39
2023-09-12T19:46:39.305Z,-145.39
2023-09-12T19:49:09.487Z,-145.39
2023-09-12T19:51:39.261Z,-145.39
2023-09-12T19:54:11.316Z,-145.39
2023-09-12T19:56:41.121Z,-145.39
2023-09-12T19:59:13.363Z,-145.39
2023-09-12T20:01:44.473Z,-145.39
2023-09-12T20:04:14.856Z,-145.39
2023-09-12T20:06:44.685Z,-145.39
2023-09-12T20:09:15.521Z,-145.39
2023-09-12T20:11:45.905Z,-145.39
2023-09-12T20:14:18.400Z,-145.39
2023-09-12T20:16:48.248Z,-145.39
2023-09-12T20:19:20.870Z,-145.39
2023-09-12T20:21:50.833Z,-145.39
2023-09-12T20:24:20.491Z,-145.39
2023-09-12T20:26:51.021Z,-145.39
2023-09-12T20:29:23.589Z,-145.39
2023-09-12T20:31:53.723Z,-145.39
2023-09-12T20:34:23.396Z,-145.39
2023-09-12T20:36:53.221Z,-145.39
2023-09-12T20:39:28.764Z,-145.39
2023-09-12T20:42:00.058Z,-145.39
2023-09-12T20:44:32.633Z,-145.39
2023-09-12T20:47:02.407Z,-145.39
2023-09-12T20:49:39.209Z,-145.39
2023-09-12T20:52:11.314Z,-145.39
2023-09-12T20:54:41.851Z,-145.39
2023-09-12T20:57:14.126Z,-145.39
2023-09-12T20:59:46.513Z,-145.39
2023-09-12T21:02:16.388Z,-145.39
2023-09-12T21:04:46.755Z,-145.39
2023-09-12T21:07:17.641Z,-145.39
2023-09-12T21:09:47.514Z,-145.39
2023-09-12T21:12:17.494Z,-145.39
2023-09-12T21:14:49.878Z,-145.39
2023-09-12T21:17:19.804Z,-145.39
2023-09-12T21:19:49.403Z,-145.39
2023-09-12T21:22:19.280Z,-145.39
2023-09-12T21:24:49.331Z,-145.39
2023-09-12T21:27:19.030Z,-145.39
2023-09-12T21:29:53.413Z,-145.39
2023-09-12T21:32:23.218Z,-145.39
2023-09-12T21:34:52.945Z,-145.39
2023-09-12T21:37:22.776Z,-145.39
2023-09-12T21:39:52.638Z,-145.39
2023-09-12T21:42:22.426Z,-145.39
2023-09-12T21:44:54.713Z,-145.39
2023-09-12T21:47:24.576Z,-145.39
2023-09-12T21:49:55.611Z,-145.39
2023-09-12T21:52:26.148Z,-145.39
2023-09-12T21:54:56.011Z,-145.39
2023-09-12T21:57:25.961Z,-145.39
2023-09-12T21:59:58.809Z,-145.39
2023-09-12T22:02:29.634Z,-145.39
2023-09-12T22:05:00.294Z,-145.39
2023-09-12T22:07:32.289Z,-145.39
2023-09-12T22:10:05.253Z,-145.39
2023-09-12T22:12:35.238Z,-145.39
2023-09-12T22:15:08.366Z,-145.39
2023-09-12T22:17:38.712Z,-145.39
2023-09-12T22:20:13.969Z,-145.39
2023-09-12T22:22:44.059Z,-145.39
2023-09-12T22:25:14.670Z,-145.39
2023-09-12T22:27:45.317Z,-145.39
2023-09-12T22:30:17.870Z,-145.39
2023-09-12T22:32:47.692Z,-145.39
2023-09-12T22:35:17.316Z,-145.39
2023-09-12T22:37:47.061Z,-145.39
2023-09-12T22:40:16.753Z,-145.39
2023-09-12T22:42:46.766Z,-145.39
2023-09-12T22:45:19.112Z,-145.39
2023-09-12T22:47:49.086Z,-145.39
2023-09-12T22:50:18.971Z,-145.39
2023-09-12T22:52:48.624Z,-145.39
2023-09-12T22:55:18.801Z,-145.39
2023-09-12T22:57:48.610Z,-145.39
2023-09-12T23:00:21.223Z,-145.39
2023-09-12T23:02:50.937Z,-145.39
2023-09-12T23:05:20.678Z,-145.39
2023-09-12T23:07:50.325Z,-145.39
2023-09-12T23:10:20.184Z,-145.39
2023-09-12T23:12:49.931Z,-145.39
2023-09-12T23:15:22.512Z,-145.39
2023-09-12T23:17:52.254Z,-145.39
2023-09-12T23:20:21.977Z,-145.39
2023-09-12T23:22:51.935Z,-145.39
2023-09-12T23:25:22.210Z,-145.39
2023-09-12T23:27:51.936Z,-145.39
2023-09-12T23:30:27.063Z,-145.39
2023-09-12T23:32:57.066Z,-145.39
2023-09-12T23:35:26.909Z,-145.39
2023-09-12T23:37:56.508Z,-145.39
2023-09-12T23:40:26.249Z,-145.39
2023-09-12T23:42:55.992Z,-145.39
2023-09-12T23:45:28.518Z,-145.39
2023-09-12T23:47:58.862Z,-145.39
2023-09-12T23:50:31.868Z,-145.39
2023-09-12T23:53:01.831Z,-145.39
2023-09-12T23:55:31.437Z,-145.39
2023-09-12T23:58:01.112Z,-145.39
